createdAt,value
2019-01-24T00:01:28.129Z,20.20
2019-01-24T00:04:05.533Z,20.20
2019-01-24T00:06:42.151Z,20.20
2019-01-24T00:09:18.008Z,20.20
2019-01-24T00:11:54.145Z,20.20
2019-01-24T00:14:31.465Z,20.20
2019-01-24T00:17:07.413Z,20.20
2019-01-24T00:19:44.284Z,20.20
2019-01-24T00:22:20.896Z,20.20
2019-01-24T00:24:57.393Z,20.20
2019-01-24T00:27:33.626Z,20.20
2019-01-24T00:30:11.332Z,20.20
2019-01-24T00:32:47.733Z,20.20
2019-01-24T00:35:24.980Z,20.20
2019-01-24T00:38:01.403Z,20.20
2019-01-24T00:40:38.085Z,20.20
2019-01-24T00:43:14.691Z,20.20
2019-01-24T00:45:51.980Z,20.20
2019-01-24T00:48:27.770Z,20.20
2019-01-24T00:51:04.617Z,20.20
2019-01-24T00:53:41.124Z,20.20
2019-01-24T00:56:18.016Z,20.20
2019-01-24T00:58:54.361Z,20.20
2019-01-24T01:01:30.652Z,20.20
2019-01-24T01:04:06.739Z,20.20
2019-01-24T01:06:43.980Z,20.20
2019-01-24T01:09:20.740Z,20.20
2019-01-24T01:11:57.229Z,20.20
2019-01-24T01:14:32.852Z,20.20
2019-01-24T01:17:10.029Z,20.20
2019-01-24T01:19:45.783Z,20.20
2019-01-24T01:22:25.313Z,20.20
2019-01-24T01:25:00.996Z,20.20
2019-01-24T01:27:38.097Z,20.20
2019-01-24T01:30:16.977Z,20.20
2019-01-24T01:32:54.040Z,20.20
2019-01-24T01:35:30.748Z,20.20
2019-01-24T01:38:08.367Z,20.20
2019-01-24T01:40:44.910Z,20.20
2019-01-24T01:43:22.436Z,20.20
2019-01-24T01:45:58.984Z,20.20
2019-01-24T01:48:35.056Z,20.20
2019-01-24T01:51:11.665Z,20.20
2019-01-24T01:53:48.161Z,20.20
2019-01-24T01:56:24.537Z,20.20
2019-01-24T01:59:01.347Z,20.20
2019-01-24T02:01:37.177Z,20.20
2019-01-24T02:04:13.845Z,20.20
2019-01-24T02:06:49.718Z,20.20
2019-01-24T02:09:26.813Z,20.20
2019-01-24T02:12:03.057Z,20.20
2019-01-24T02:14:39.443Z,20.20
2019-01-24T02:17:15.682Z,20.20
2019-01-24T02:19:51.861Z,20.20
2019-01-24T02:22:28.191Z,20.20
2019-01-24T02:25:06.628Z,20.30
2019-01-24T02:27:43.080Z,20.20
2019-01-24T02:30:21.706Z,20.20
2019-01-24T02:32:58.387Z,20.20
2019-01-24T02:35:34.759Z,20.20
2019-01-24T02:38:11.123Z,20.20
2019-01-24T02:40:47.441Z,20.20
2019-01-24T02:43:23.393Z,20.20
2019-01-24T02:46:00.385Z,20.20
2019-01-24T02:48:36.972Z,20.20
2019-01-24T02:51:14.084Z,20.20
2019-01-24T02:53:50.845Z,20.20
2019-01-24T02:56:27.179Z,20.20
2019-01-24T02:59:04.098Z,20.20
2019-01-24T03:01:41.022Z,20.20
2019-01-24T03:04:17.542Z,20.20
2019-01-24T03:06:54.336Z,20.20
2019-01-24T03:09:30.261Z,20.20
2019-01-24T03:12:07.065Z,20.20
2019-01-24T03:14:43.609Z,20.20
2019-01-24T03:17:20.360Z,20.20
2019-01-24T03:19:56.089Z,20.20
2019-01-24T03:22:32.128Z,20.20
2019-01-24T03:25:08.449Z,20.20
2019-01-24T03:27:44.587Z,20.20
2019-01-24T03:30:22.030Z,20.20
2019-01-24T03:32:58.742Z,20.20
2019-01-24T03:35:35.152Z,20.20
2019-01-24T03:38:12.160Z,20.20
2019-01-24T03:40:48.171Z,20.20
2019-01-24T03:43:24.421Z,20.20
2019-01-24T03:46:00.304Z,20.20
2019-01-24T03:48:37.391Z,20.20
2019-01-24T03:51:13.345Z,20.20
2019-01-24T03:53:49.632Z,20.10
2019-01-24T03:56:25.572Z,20.20
2019-01-24T03:59:02.600Z,20.20
2019-01-24T04:01:39.013Z,20.20
2019-01-24T04:04:15.917Z,20.20
2019-01-24T04:06:51.944Z,20.20
2019-01-24T04:09:28.759Z,20.20
2019-01-24T04:12:05.612Z,20.20
2019-01-24T04:14:42.112Z,20.20
2019-01-24T04:17:18.400Z,20.20
2019-01-24T04:19:54.576Z,20.20
2019-01-24T04:22:31.180Z,20.20
2019-01-24T04:25:08.965Z,20.20
2019-01-24T04:27:45.440Z,20.20
2019-01-24T04:30:23.177Z,20.20
2019-01-24T04:32:59.702Z,20.20
2019-01-24T04:35:36.101Z,20.20
2019-01-24T04:38:12.270Z,20.10
2019-01-24T04:40:49.554Z,20.20
2019-01-24T04:43:25.905Z,20.20
2019-01-24T04:46:02.932Z,20.20
2019-01-24T04:48:39.130Z,20.20
2019-01-24T04:51:15.744Z,20.10
2019-01-24T04:53:52.069Z,20.20
2019-01-24T04:56:28.487Z,20.20
2019-01-24T04:59:05.270Z,20.20
2019-01-24T05:01:42.010Z,20.20
2019-01-24T05:04:17.736Z,20.20
2019-01-24T05:06:54.561Z,20.20
2019-01-24T05:09:31.253Z,20.20
2019-01-24T05:12:08.225Z,20.20
2019-01-24T05:14:43.921Z,20.20
2019-01-24T05:17:20.939Z,20.20
2019-01-24T05:19:57.052Z,20.20
2019-01-24T05:22:33.196Z,20.20
2019-01-24T05:25:11.013Z,20.20
2019-01-24T05:27:49.253Z,20.20
2019-01-24T05:30:29.770Z,20.20
2019-01-24T05:33:06.592Z,20.20
2019-01-24T05:35:42.938Z,20.20
2019-01-24T05:38:19.600Z,20.20
2019-01-24T05:40:55.681Z,20.20
2019-01-24T05:43:32.679Z,20.20
2019-01-24T05:46:09.132Z,20.20
2019-01-24T05:48:46.755Z,20.20
2019-01-24T05:51:22.870Z,20.20
2019-01-24T05:53:59.494Z,20.20
2019-01-24T05:56:35.120Z,20.20
2019-01-24T05:59:11.440Z,20.20
2019-01-24T06:01:48.141Z,20.20
2019-01-24T06:04:24.610Z,20.20
2019-01-24T06:07:01.168Z,20.20
2019-01-24T06:09:37.281Z,20.20
2019-01-24T06:12:13.252Z,20.20
2019-01-24T06:14:49.625Z,20.20
2019-01-24T06:17:26.244Z,20.20
2019-01-24T06:20:02.726Z,20.20
2019-01-24T06:22:39.478Z,20.20
2019-01-24T06:25:16.377Z,20.20
2019-01-24T06:27:52.624Z,20.20
2019-01-24T06:30:28.805Z,20.20
2019-01-24T06:33:05.837Z,20.10
2019-01-24T06:35:48.450Z,20.20
2019-01-24T06:38:20.324Z,20.10
2019-01-24T06:40:57.262Z,20.20
2019-01-24T06:43:33.375Z,20.10
2019-01-24T06:46:09.573Z,20.10
2019-01-24T06:48:46.121Z,20.10
2019-01-24T06:51:23.214Z,20.10
2019-01-24T06:53:59.710Z,20.10
2019-01-24T06:56:36.393Z,20.10
2019-01-24T06:59:12.904Z,20.10
2019-01-24T07:01:49.256Z,20.10
2019-01-24T07:04:25.648Z,20.10
2019-01-24T07:07:02.292Z,20.10
2019-01-24T07:09:38.441Z,20.10
2019-01-24T07:12:14.797Z,20.10
2019-01-24T07:14:50.892Z,20.10
2019-01-24T07:17:27.763Z,20.10
2019-01-24T07:20:04.634Z,20.10
2019-01-24T07:22:41.204Z,20.10
2019-01-24T07:25:19.573Z,19.80
2019-01-24T07:27:56.244Z,19.70
2019-01-24T07:30:32.629Z,19.60
2019-01-24T07:33:08.746Z,19.60
2019-01-24T07:35:44.704Z,19.70
2019-01-24T07:38:21.795Z,19.70
2019-01-24T07:40:58.348Z,19.70
2019-01-24T07:43:35.048Z,19.70
2019-01-24T07:46:10.876Z,19.80
2019-01-24T07:48:47.576Z,19.80
2019-01-24T07:51:24.097Z,19.80
2019-01-24T07:54:00.467Z,19.80
2019-01-24T07:56:36.191Z,19.90
2019-01-24T07:59:11.852Z,19.80
2019-01-24T08:01:47.921Z,19.90
2019-01-24T08:04:24.884Z,19.90
2019-01-24T08:07:00.685Z,19.90
2019-01-24T08:09:37.547Z,19.90
2019-01-24T08:12:13.708Z,19.90
2019-01-24T08:14:49.716Z,20.00
2019-01-24T08:17:25.852Z,20.00
2019-01-24T08:20:02.240Z,20.00
2019-01-24T08:22:38.754Z,20.00
2019-01-24T08:25:16.240Z,20.00
2019-01-24T08:27:52.813Z,20.00
2019-01-24T08:30:31.162Z,20.00
2019-01-24T08:33:07.699Z,20.00
2019-01-24T08:35:44.621Z,20.00
2019-01-24T08:38:20.747Z,20.00
2019-01-24T08:40:57.054Z,20.00
2019-01-24T08:43:33.340Z,20.00
2019-01-24T08:46:09.905Z,20.10
2019-01-24T08:48:45.901Z,20.00
2019-01-24T08:51:22.088Z,20.00
2019-01-24T08:53:57.773Z,20.00
2019-01-24T08:56:34.977Z,20.00
2019-01-24T08:59:11.480Z,20.10
2019-01-24T09:01:48.637Z,20.10
2019-01-24T09:04:25.532Z,20.10
2019-01-24T09:07:01.910Z,20.10
2019-01-24T09:09:38.273Z,20.10
2019-01-24T09:12:15.013Z,20.10
2019-01-24T09:14:51.991Z,20.10
2019-01-24T09:17:28.743Z,20.10
2019-01-24T09:20:08.237Z,20.10
2019-01-24T09:22:44.432Z,20.10
2019-01-24T09:25:20.533Z,20.10
2019-01-24T09:27:57.652Z,20.10
2019-01-24T09:30:34.440Z,20.10
2019-01-24T09:33:10.754Z,20.10
2019-01-24T09:35:47.338Z,20.10
2019-01-24T09:38:24.053Z,20.10
2019-01-24T09:41:00.297Z,20.10
2019-01-24T09:43:36.516Z,20.10
2019-01-24T09:46:12.321Z,20.10
2019-01-24T09:48:48.012Z,20.10
2019-01-24T09:51:23.684Z,20.10
2019-01-24T09:53:59.797Z,20.10
2019-01-24T09:56:35.742Z,20.20
2019-01-24T09:59:12.079Z,20.20
2019-01-24T10:01:48.643Z,20.20
2019-01-24T10:04:25.319Z,20.20
2019-01-24T10:07:02.204Z,20.20
2019-01-24T10:09:38.701Z,20.20
2019-01-24T10:12:15.446Z,20.20
2019-01-24T10:14:52.675Z,20.20
2019-01-24T10:17:28.905Z,20.20
2019-01-24T10:20:07.200Z,20.20
2019-01-24T10:22:44.190Z,20.20
2019-01-24T10:25:23.512Z,20.20
2019-01-24T10:27:59.703Z,20.20
2019-01-24T10:30:42.329Z,20.20
2019-01-24T10:33:14.904Z,20.20
2019-01-24T10:35:51.929Z,20.20
2019-01-24T10:38:28.340Z,20.20
2019-01-24T10:41:04.804Z,20.20
2019-01-24T10:43:41.213Z,20.20
2019-01-24T10:46:17.953Z,20.20
2019-01-24T10:48:54.740Z,20.20
2019-01-24T10:51:31.473Z,20.20
2019-01-24T10:54:07.566Z,20.20
2019-01-24T10:56:43.914Z,20.20
2019-01-24T10:59:19.804Z,20.20
2019-01-24T11:01:57.181Z,20.20
2019-01-24T11:04:33.622Z,20.20
2019-01-24T11:07:10.780Z,20.20
2019-01-24T11:09:47.622Z,20.20
2019-01-24T11:12:24.689Z,20.20
2019-01-24T11:15:00.840Z,20.20
2019-01-24T11:17:48.744Z,20.20
2019-01-24T11:20:25.043Z,20.30
2019-01-24T11:23:00.922Z,20.30
2019-01-24T11:25:37.071Z,20.30
2019-01-24T11:28:13.720Z,20.30
2019-01-24T11:30:50.297Z,20.30
2019-01-24T11:33:26.397Z,20.30
2019-01-24T11:36:02.930Z,20.30
2019-01-24T11:38:39.411Z,20.30
2019-01-24T11:41:16.680Z,20.30
2019-01-24T11:43:52.911Z,20.30
2019-01-24T11:46:29.317Z,20.30
2019-01-24T11:49:05.409Z,20.30
2019-01-24T11:51:41.444Z,20.30
2019-01-24T11:54:17.428Z,20.30
2019-01-24T11:56:53.738Z,20.30
2019-01-24T11:59:30.457Z,20.30
2019-01-24T12:02:07.124Z,20.30
2019-01-24T12:04:43.550Z,20.30
2019-01-24T12:07:19.889Z,20.30
2019-01-24T12:09:56.402Z,20.30
2019-01-24T12:12:32.869Z,20.30
2019-01-24T12:15:11.694Z,20.30
2019-01-24T12:17:47.740Z,20.20
2019-01-24T12:20:24.865Z,20.20
2019-01-24T12:23:00.578Z,20.20
2019-01-24T12:25:37.095Z,20.20
2019-01-24T12:28:13.334Z,20.20
2019-01-24T12:30:49.482Z,20.20
2019-01-24T12:33:25.716Z,20.20
2019-01-24T12:36:02.380Z,20.20
2019-01-24T12:38:38.797Z,20.20
2019-01-24T12:41:15.317Z,20.20
2019-01-24T12:43:52.657Z,20.20
2019-01-24T12:46:28.841Z,20.20
2019-01-24T12:49:05.070Z,20.30
2019-01-24T12:51:40.966Z,20.20
2019-01-24T12:54:16.901Z,20.20
2019-01-24T12:56:52.648Z,20.20
2019-01-24T12:59:29.496Z,20.20
2019-01-24T13:02:05.634Z,20.20
2019-01-24T13:04:42.772Z,20.30
2019-01-24T13:07:18.627Z,20.20
2019-01-24T13:09:54.778Z,20.20
2019-01-24T13:12:32.693Z,20.20
2019-01-24T13:15:10.036Z,20.20
2019-01-24T13:17:45.811Z,20.20
2019-01-24T13:20:23.032Z,20.20
2019-01-24T13:22:59.552Z,20.20
2019-01-24T13:25:36.461Z,20.20
2019-01-24T13:28:13.237Z,20.20
2019-01-24T13:30:50.121Z,20.20
2019-01-24T13:33:26.711Z,20.20
2019-01-24T13:36:02.933Z,20.20
2019-01-24T13:38:39.316Z,20.20
2019-01-24T13:41:15.832Z,20.20
2019-01-24T13:43:51.932Z,20.30
2019-01-24T13:46:28.144Z,20.20
2019-01-24T13:49:04.879Z,20.20
2019-01-24T13:51:41.376Z,20.20
2019-01-24T13:54:48.433Z,20.20
2019-01-24T13:57:25.419Z,20.20
2019-01-24T14:00:01.707Z,20.20
2019-01-24T14:02:39.728Z,20.20
2019-01-24T14:05:27.489Z,20.20
2019-01-24T14:08:04.034Z,20.20
2019-01-24T14:10:40.040Z,20.20
2019-01-24T14:13:16.420Z,20.20
2019-01-24T14:15:52.595Z,20.20
2019-01-24T14:18:29.638Z,20.20
2019-01-24T14:21:05.671Z,20.20
2019-01-24T14:23:42.210Z,20.20
2019-01-24T14:26:18.565Z,20.20
2019-01-24T14:28:55.210Z,20.20
2019-01-24T14:31:31.261Z,20.20
2019-01-24T14:34:07.793Z,20.20
2019-01-24T14:36:43.985Z,20.20
2019-01-24T14:39:20.629Z,20.20
2019-01-24T14:41:56.502Z,20.20
2019-01-24T14:44:32.528Z,20.20
2019-01-24T14:47:08.420Z,20.20
2019-01-24T14:49:44.909Z,20.20
2019-01-24T14:52:21.377Z,20.20
2019-01-24T14:54:58.029Z,20.20
2019-01-24T14:57:34.084Z,20.20
2019-01-24T15:00:29.634Z,20.20
2019-01-24T15:03:06.776Z,20.20
2019-01-24T15:05:43.638Z,20.20
2019-01-24T15:08:20.008Z,20.20
2019-01-24T15:10:56.506Z,20.20
2019-01-24T15:13:32.280Z,20.20
2019-01-24T15:16:09.383Z,20.20
2019-01-24T15:18:45.868Z,20.20
2019-01-24T15:21:24.086Z,20.20
2019-01-24T15:24:00.604Z,20.20
2019-01-24T15:26:36.912Z,20.20
2019-01-24T15:29:12.809Z,20.20
2019-01-24T15:31:49.581Z,20.20
2019-01-24T15:34:25.793Z,20.20
2019-01-24T15:37:02.260Z,20.20
2019-01-24T15:39:38.297Z,20.20
2019-01-24T15:42:14.810Z,20.20
2019-01-24T15:44:50.928Z,20.20
2019-01-24T15:47:27.129Z,20.20
2019-01-24T15:50:02.936Z,20.20
2019-01-24T15:52:39.306Z,20.20
2019-01-24T15:55:15.832Z,20.20
2019-01-24T15:57:53.844Z,20.20
2019-01-24T16:00:31.999Z,20.20
2019-01-24T16:03:09.114Z,20.20
2019-01-24T16:05:44.907Z,20.20
2019-01-24T16:08:21.361Z,20.20
2019-01-24T16:10:58.191Z,20.20
2019-01-24T16:13:34.253Z,20.20
2019-01-24T16:16:10.569Z,20.20
2019-01-24T16:18:47.940Z,20.20
2019-01-24T16:21:24.011Z,20.20
2019-01-24T16:24:00.490Z,20.20
2019-01-24T16:26:37.325Z,20.20
2019-01-24T16:29:13.602Z,20.20
2019-01-24T16:31:49.614Z,20.20
2019-01-24T16:34:25.867Z,20.20
2019-01-24T16:37:02.457Z,20.20
2019-01-24T16:39:39.006Z,20.20
2019-01-24T16:42:14.931Z,20.20
2019-01-24T16:44:51.182Z,20.20
2019-01-24T16:47:27.372Z,20.20
2019-01-24T16:50:04.575Z,20.20
2019-01-24T16:52:41.378Z,20.20
2019-01-24T16:55:18.930Z,20.20
2019-01-24T16:57:55.485Z,20.20
2019-01-24T17:00:47.451Z,20.20
2019-01-24T17:03:23.573Z,20.20
2019-01-24T17:05:59.953Z,20.20
2019-01-24T17:08:35.839Z,20.20
2019-01-24T17:11:12.418Z,20.20
2019-01-24T17:13:49.180Z,20.20
2019-01-24T17:16:25.498Z,20.20
2019-01-24T17:19:01.418Z,20.10
2019-01-24T17:21:38.642Z,20.20
2019-01-24T17:24:14.932Z,20.10
2019-01-24T17:26:51.380Z,20.10
2019-01-24T17:29:27.746Z,20.10
2019-01-24T17:32:04.073Z,20.10
2019-01-24T17:34:40.192Z,20.10
2019-01-24T17:37:17.002Z,20.10
2019-01-24T17:39:53.060Z,20.10
2019-01-24T17:42:30.333Z,20.10
2019-01-24T17:45:08.005Z,20.10
2019-01-24T17:47:46.661Z,20.10
2019-01-24T17:50:22.782Z,20.10
2019-01-24T17:52:59.369Z,20.10
2019-01-24T17:55:38.120Z,20.10
2019-01-24T17:58:14.036Z,20.10
2019-01-24T18:00:51.853Z,20.00
2019-01-24T18:03:29.757Z,19.90
2019-01-24T18:06:05.945Z,19.90
2019-01-24T18:08:42.693Z,19.90
2019-01-24T18:11:19.464Z,19.90
2019-01-24T18:13:55.289Z,19.90
2019-01-24T18:16:32.080Z,19.90
2019-01-24T18:19:08.061Z,19.90
2019-01-24T18:21:44.501Z,19.90
2019-01-24T18:24:20.340Z,19.90
2019-01-24T18:26:56.771Z,19.90
2019-01-24T18:29:34.048Z,19.90
2019-01-24T18:32:12.012Z,20.00
2019-01-24T18:34:48.014Z,20.00
2019-01-24T18:37:24.008Z,20.00
2019-01-24T18:40:11.734Z,20.00
2019-01-24T18:42:48.545Z,20.00
2019-01-24T18:45:33.041Z,20.00
2019-01-24T18:48:09.561Z,20.10
2019-01-24T18:50:46.229Z,20.00
2019-01-24T18:53:22.916Z,20.10
2019-01-24T18:55:59.335Z,20.10
2019-01-24T18:58:35.114Z,20.10
2019-01-24T19:01:11.376Z,20.10
2019-01-24T19:03:47.450Z,20.10
2019-01-24T19:06:23.633Z,20.10
2019-01-24T19:08:59.898Z,20.10
2019-01-24T19:11:36.369Z,20.10
2019-01-24T19:14:13.403Z,20.20
2019-01-24T19:16:50.425Z,20.20
2019-01-24T19:19:27.122Z,20.20
2019-01-24T19:22:03.614Z,20.20
2019-01-24T19:24:39.925Z,20.20
2019-01-24T19:27:15.997Z,20.20
2019-01-24T19:29:54.741Z,20.20
2019-01-24T19:32:31.419Z,20.20
2019-01-24T19:35:08.344Z,20.20
2019-01-24T19:37:45.108Z,20.20
2019-01-24T19:40:22.338Z,20.30
2019-01-24T19:42:58.738Z,20.20
2019-01-24T19:45:34.848Z,20.20
2019-01-24T19:48:10.920Z,20.30
2019-01-24T19:50:47.949Z,20.30
2019-01-24T19:53:24.366Z,20.30
2019-01-24T19:56:01.068Z,20.20
2019-01-24T19:58:37.612Z,20.30
2019-01-24T20:01:13.956Z,20.30
2019-01-24T20:03:50.406Z,20.30
2019-01-24T20:06:26.654Z,20.30
2019-01-24T20:09:04.267Z,20.30
2019-01-24T20:11:41.463Z,20.30
2019-01-24T20:14:19.104Z,20.30
2019-01-24T20:16:55.438Z,20.30
2019-01-24T20:19:31.534Z,20.30
2019-01-24T20:22:07.640Z,20.30
2019-01-24T20:24:44.035Z,20.30
2019-01-24T20:27:20.220Z,20.30
2019-01-24T20:29:56.486Z,20.30
2019-01-24T20:32:33.689Z,20.30
2019-01-24T20:35:15.168Z,20.30
2019-01-24T20:37:51.014Z,20.30
2019-01-24T20:40:28.019Z,20.30
2019-01-24T20:43:04.684Z,20.30
2019-01-24T20:45:41.604Z,20.30
2019-01-24T20:48:18.193Z,20.30
2019-01-24T20:50:55.096Z,20.30
2019-01-24T20:53:31.457Z,20.30
2019-01-24T20:56:08.188Z,20.30
2019-01-24T20:58:44.889Z,20.30
2019-01-24T21:01:21.888Z,20.30
2019-01-24T21:03:58.317Z,20.30
2019-01-24T21:06:35.022Z,20.30
2019-01-24T21:09:14.867Z,20.30
2019-01-24T21:11:49.806Z,20.30
2019-01-24T21:14:26.896Z,20.30
2019-01-24T21:17:04.236Z,20.30
2019-01-24T21:19:40.931Z,20.30
2019-01-24T21:22:17.022Z,20.30
2019-01-24T21:24:53.003Z,20.30
2019-01-24T21:27:29.836Z,20.30
2019-01-24T21:30:08.418Z,20.30
2019-01-24T21:32:44.599Z,20.30
2019-01-24T21:35:21.073Z,20.30
2019-01-24T21:37:57.407Z,20.30
2019-01-24T21:40:33.878Z,20.30
2019-01-24T21:43:10.322Z,20.30
2019-01-24T21:45:46.376Z,20.30
2019-01-24T21:48:22.945Z,20.30
2019-01-24T21:50:58.876Z,20.30
2019-01-24T21:53:35.476Z,20.30
2019-01-24T21:56:11.704Z,20.30
2019-01-24T21:58:48.261Z,20.30
2019-01-24T22:01:24.356Z,20.30
2019-01-24T22:04:01.016Z,20.30
2019-01-24T22:06:37.544Z,20.30
2019-01-24T22:09:13.881Z,20.30
2019-01-24T22:11:49.834Z,20.30
2019-01-24T22:14:26.520Z,20.30
2019-01-24T22:17:03.015Z,20.30
2019-01-24T22:19:39.146Z,20.30
2019-01-24T22:22:15.632Z,20.40
2019-01-24T22:24:52.437Z,20.30
2019-01-24T22:27:29.191Z,20.40
2019-01-24T22:30:07.463Z,20.30
2019-01-24T22:32:43.652Z,20.30
2019-01-24T22:35:20.276Z,20.30
2019-01-24T22:37:56.712Z,20.40
2019-01-24T22:40:32.860Z,20.40
2019-01-24T22:43:10.171Z,20.40
2019-01-24T22:45:46.704Z,20.40
2019-01-24T22:48:22.916Z,20.40
2019-01-24T22:50:58.825Z,20.40
2019-01-24T22:53:35.116Z,20.40
2019-01-24T22:56:11.344Z,20.40
2019-01-24T22:58:47.638Z,20.30
2019-01-24T23:01:50.260Z,20.40
2019-01-24T23:04:26.728Z,20.40
2019-01-24T23:07:04.712Z,20.30
2019-01-24T23:09:44.288Z,20.30
2019-01-24T23:12:19.183Z,20.30
2019-01-24T23:14:55.736Z,20.30
2019-01-24T23:17:31.485Z,20.30
2019-01-24T23:20:09.977Z,20.30
2019-01-24T23:22:46.788Z,20.30
2019-01-24T23:25:23.720Z,20.30
2019-01-24T23:28:01.024Z,20.30
2019-01-24T23:30:38.320Z,20.30
2019-01-24T23:33:14.765Z,20.30
2019-01-24T23:35:50.742Z,20.30
2019-01-24T23:38:28.044Z,20.30
2019-01-24T23:41:04.555Z,20.30
2019-01-24T23:43:40.821Z,20.30
2019-01-24T23:46:17.559Z,20.30
2019-01-24T23:48:53.949Z,20.30
2019-01-24T23:51:30.921Z,20.30
2019-01-24T23:54:26.154Z,20.30
2019-01-24T23:57:02.823Z,20.30
2019-01-24T23:59:39.205Z,20.30
